createdAt,value
2022-11-24T00:03:02.509Z,62.30
2022-11-24T00:08:10.652Z,64.50
2022-11-24T00:13:18.474Z,60.10
2022-11-24T00:18:26.246Z,59.10
2022-11-24T00:23:34.341Z,60.30
2022-11-24T00:28:43.698Z,61.10
2022-11-24T00:33:53.690Z,56.30
2022-11-24T00:39:03.267Z,61.40
2022-11-24T00:44:11.368Z,62.20
2022-11-24T00:49:19.259Z,62.10
2022-11-24T00:54:27.217Z,68.30
2022-11-24T00:59:34.865Z,70.50
2022-11-24T01:04:42.667Z,64.20
2022-11-24T01:09:50.480Z,69.30
2022-11-24T01:14:58.191Z,67.70
2022-11-24T01:20:06.519Z,63.40
2022-11-24T01:25:17.056Z,68.50
2022-11-24T01:30:24.785Z,66.80
2022-11-24T01:35:32.551Z,73.80
2022-11-24T01:40:40.483Z,78.10
2022-11-24T01:45:49.144Z,74.20
2022-11-24T01:51:04.109Z,76.60
2022-11-24T01:56:12.719Z,74.30
2022-11-24T02:01:20.730Z,69.10
2022-11-24T02:06:31.905Z,66.00
2022-11-24T02:11:41.816Z,67.20
2022-11-24T02:16:53.361Z,65.00
2022-11-24T02:22:01.878Z,62.80
2022-11-24T02:27:11.361Z,66.60
2022-11-24T02:32:20.250Z,70.40
2022-11-24T02:37:27.864Z,66.60
2022-11-24T02:42:39.162Z,69.20
2022-11-24T02:47:47.080Z,69.80
2022-11-24T02:52:57.180Z,67.40
2022-11-24T02:58:05.358Z,66.20
2022-11-24T03:03:13.625Z,65.70
2022-11-24T03:08:22.971Z,63.30
2022-11-24T03:13:31.356Z,65.30
2022-11-24T03:18:39.047Z,63.10
2022-11-24T03:23:46.677Z,65.20
2022-11-24T03:28:57.498Z,63.90
2022-11-24T03:34:05.347Z,59.60
2022-11-24T03:39:14.563Z,63.60
2022-11-24T03:44:22.271Z,60.90
2022-11-24T03:49:30.014Z,61.20
2022-11-24T03:54:37.751Z,60.60
2022-11-24T03:59:45.869Z,60.60
2022-11-24T04:04:53.592Z,58.20
2022-11-24T04:10:02.929Z,59.80
2022-11-24T04:15:12.627Z,63.50
2022-11-24T04:20:21.094Z,60.10
2022-11-24T04:25:28.743Z,63.40
2022-11-24T04:30:39.132Z,62.70
2022-11-24T04:35:46.931Z,62.00
2022-11-24T04:40:54.598Z,69.40
2022-11-24T04:46:04.532Z,65.30
2022-11-24T04:51:16.218Z,64.80
2022-11-24T04:56:23.910Z,58.40
2022-11-24T05:01:31.677Z,60.80
2022-11-24T05:06:39.471Z,59.10
2022-11-24T05:11:47.484Z,60.90
2022-11-24T05:16:55.139Z,58.60
2022-11-24T05:22:02.695Z,64.60
2022-11-24T05:27:10.430Z,59.60
2022-11-24T05:32:18.116Z,55.00
2022-11-24T05:37:27.214Z,58.30
2022-11-24T05:42:47.794Z,59.90
2022-11-24T05:47:55.926Z,60.50
2022-11-24T05:53:07.571Z,61.00
2022-11-24T05:58:14.526Z,58.20
2022-11-24T06:03:21.525Z,61.40
2022-11-24T06:08:31.296Z,59.50
2022-11-24T06:13:38.597Z,58.40
2022-11-24T06:18:45.791Z,60.50
2022-11-24T06:23:52.731Z,55.30
2022-11-24T06:28:59.539Z,54.90
2022-11-24T06:34:10.918Z,57.00
2022-11-24T06:39:18.113Z,55.10
2022-11-24T06:44:25.295Z,54.70
2022-11-24T06:49:32.225Z,54.20
2022-11-24T06:54:39.116Z,56.90
2022-11-24T06:59:46.438Z,58.50
2022-11-24T07:04:53.460Z,58.90
2022-11-24T07:10:03.343Z,60.60
2022-11-24T07:15:12.231Z,88.80
2022-11-24T07:20:19.703Z,79.00
2022-11-24T07:25:29.582Z,62.60
2022-11-24T07:30:38.735Z,62.30
2022-11-24T07:35:45.780Z,62.50
2022-11-24T07:40:52.873Z,59.90
2022-11-24T07:45:59.902Z,60.60
2022-11-24T07:51:07.955Z,62.10
2022-11-24T07:56:15.024Z,65.60
2022-11-24T08:01:22.978Z,73.10
2022-11-24T08:06:38.458Z,66.20
2022-11-24T08:11:48.025Z,72.20
2022-11-24T08:16:55.211Z,76.90
2022-11-24T08:22:02.514Z,89.00
2022-11-24T08:27:09.575Z,81.80
2022-11-24T08:32:22.053Z,92.00
2022-11-24T08:37:29.865Z,91.00
2022-11-24T08:42:36.712Z,80.30
2022-11-24T08:47:43.732Z,73.10
2022-11-24T08:52:52.458Z,76.70
2022-11-24T08:57:59.568Z,75.60
2022-11-24T09:03:07.236Z,72.10
2022-11-24T09:08:14.271Z,68.50
2022-11-24T09:13:23.612Z,67.50
2022-11-24T09:18:30.723Z,66.60
2022-11-24T09:23:39.330Z,67.40
2022-11-24T09:28:47.051Z,64.10
2022-11-24T09:33:54.565Z,74.00
2022-11-24T09:39:02.056Z,66.60
2022-11-24T09:44:23.704Z,62.50
2022-11-24T09:49:36.697Z,64.10
2022-11-24T09:54:51.300Z,56.50
2022-11-24T10:00:04.195Z,58.70
2022-11-24T10:10:34.137Z,54.20
2022-11-24T10:15:47.536Z,55.60
2022-11-24T10:21:04.056Z,55.70
2022-11-24T10:26:19.532Z,57.20
2022-11-24T10:31:33.982Z,52.90
2022-11-24T10:36:49.372Z,57.30
2022-11-24T10:42:02.747Z,59.40
2022-11-24T10:47:22.982Z,53.80
2022-11-24T10:52:33.591Z,58.10
2022-11-24T10:57:42.105Z,56.30
2022-11-24T11:02:51.567Z,66.20
2022-11-24T11:13:32.435Z,55.90
2022-11-24T11:18:39.478Z,50.20
2022-11-24T11:23:52.662Z,53.50
2022-11-24T11:34:36.678Z,53.40
2022-11-24T11:39:48.943Z,52.40
2022-11-24T11:45:00.339Z,56.30
2022-11-24T11:50:14.884Z,53.60
2022-11-24T11:55:51.712Z,55.90
2022-11-24T12:01:06.757Z,55.70
2022-11-24T12:06:28.560Z,55.50
2022-11-24T12:11:44.195Z,52.30
2022-11-24T12:17:02.967Z,55.40
2022-11-24T12:22:20.062Z,59.20
2022-11-24T12:27:39.387Z,57.00
2022-11-24T12:33:10.354Z,56.10
2022-11-24T12:38:37.849Z,55.30
2022-11-24T12:43:51.278Z,69.80
2022-11-24T12:49:13.898Z,72.90
2022-11-24T12:54:24.905Z,59.40
2022-11-24T12:59:41.022Z,59.60
2022-11-24T13:04:52.634Z,60.90
2022-11-24T13:10:54.677Z,61.40
2022-11-24T13:22:04.574Z,57.70
2022-11-24T13:27:41.162Z,59.30
2022-11-24T13:33:02.934Z,59.80
2022-11-24T13:38:42.154Z,59.30
2022-11-24T13:44:25.464Z,62.00
2022-11-24T13:49:42.644Z,58.70
2022-11-24T13:54:49.684Z,62.80
2022-11-24T14:00:03.463Z,62.30
2022-11-24T14:05:16.317Z,61.50
2022-11-24T14:10:31.742Z,59.50
2022-11-24T14:15:39.461Z,59.30
2022-11-24T14:20:46.313Z,61.90
2022-11-24T14:25:57.330Z,64.60
2022-11-24T14:31:19.131Z,65.10
2022-11-24T14:36:26.254Z,67.80
2022-11-24T14:41:35.189Z,69.70
2022-11-24T14:46:42.068Z,66.40
2022-11-24T14:51:56.913Z,67.50
2022-11-24T14:57:05.959Z,70.50
2022-11-24T15:02:43.426Z,67.70
2022-11-24T15:07:53.869Z,69.00
2022-11-24T15:13:03.491Z,72.40
2022-11-24T15:18:27.798Z,79.30
2022-11-24T15:23:35.979Z,82.40
2022-11-24T15:28:42.884Z,81.50
2022-11-24T15:33:49.974Z,77.30
2022-11-24T15:38:57.556Z,67.00
2022-11-24T15:44:07.078Z,69.40
2022-11-24T15:49:14.083Z,73.20
2022-11-24T15:54:21.495Z,71.80
2022-11-24T15:59:28.675Z,98.60
2022-11-24T16:04:35.945Z,119.10
2022-11-24T16:09:43.392Z,107.80
2022-11-24T16:14:50.403Z,103.70
2022-11-24T16:20:00.701Z,96.70
2022-11-24T16:25:09.657Z,99.80
2022-11-24T16:30:17.278Z,88.50
2022-11-24T16:35:24.700Z,88.10
2022-11-24T16:40:38.178Z,94.00
2022-11-24T16:45:45.825Z,87.80
2022-11-24T16:50:52.719Z,105.00
2022-11-24T16:56:03.195Z,90.30
2022-11-24T17:01:11.685Z,95.50
2022-11-24T17:06:20.217Z,89.80
2022-11-24T17:11:29.003Z,83.60
2022-11-24T17:16:35.930Z,75.20
2022-11-24T17:21:51.612Z,77.10
2022-11-24T17:26:58.531Z,76.10
2022-11-24T17:32:05.530Z,72.70
2022-11-24T17:37:12.623Z,74.10
2022-11-24T17:42:19.552Z,77.30
2022-11-24T17:47:28.634Z,74.80
2022-11-24T17:52:37.155Z,74.00
2022-11-24T17:57:43.973Z,74.80
2022-11-24T18:02:51.286Z,75.70
2022-11-24T18:07:58.275Z,73.00
2022-11-24T18:13:55.261Z,79.00
2022-11-24T18:18:36.602Z,81.50
2022-11-24T18:23:47.396Z,82.80
2022-11-24T18:28:54.653Z,83.40
2022-11-24T18:34:02.423Z,86.30
2022-11-24T18:39:11.142Z,85.70
2022-11-24T18:44:18.095Z,85.30
2022-11-24T18:49:25.132Z,89.50
2022-11-24T18:54:32.991Z,88.00
2022-11-24T18:59:40.507Z,91.10
2022-11-24T19:04:47.522Z,89.00
2022-11-24T19:09:54.505Z,100.80
2022-11-24T19:15:01.336Z,106.00
2022-11-24T19:20:10.332Z,112.30
2022-11-24T19:25:17.316Z,114.40
2022-11-24T19:30:25.674Z,135.50
2022-11-24T19:35:32.616Z,125.70
2022-11-24T19:40:39.729Z,114.70
2022-11-24T19:45:46.971Z,112.60
2022-11-24T19:51:00.995Z,120.10
2022-11-24T19:56:10.450Z,118.50
2022-11-24T20:01:18.854Z,132.50
2022-11-24T20:06:29.343Z,127.90
2022-11-24T20:11:39.116Z,129.90
2022-11-24T20:16:47.920Z,131.90
2022-11-24T20:21:55.478Z,132.10
2022-11-24T20:27:03.362Z,117.80
2022-11-24T20:32:11.462Z,124.30
2022-11-24T20:37:18.408Z,122.70
2022-11-24T20:42:25.574Z,115.90
2022-11-24T20:47:32.570Z,107.80
2022-11-24T20:52:39.407Z,111.20
2022-11-24T20:57:46.493Z,99.40
2022-11-24T21:02:53.383Z,98.80
2022-11-24T21:08:00.325Z,102.00
2022-11-24T21:13:07.218Z,97.20
2022-11-24T21:18:14.316Z,91.10
2022-11-24T21:23:21.694Z,94.90
2022-11-24T21:28:28.636Z,95.70
2022-11-24T21:33:35.853Z,97.50
2022-11-24T21:38:43.059Z,94.90
2022-11-24T21:43:50.276Z,100.80
2022-11-24T21:48:57.272Z,99.90
2022-11-24T21:54:04.214Z,94.20
2022-11-24T21:59:11.483Z,101.60
2022-11-24T22:04:18.510Z,98.30
2022-11-24T22:09:25.315Z,95.80
2022-11-24T22:14:36.091Z,94.80
2022-11-24T22:19:46.091Z,95.10
2022-11-24T22:24:53.137Z,97.90
2022-11-24T22:30:00.241Z,101.00
2022-11-24T22:35:08.727Z,98.40
2022-11-24T22:40:16.331Z,100.90
2022-11-24T22:45:24.259Z,97.70
2022-11-24T22:50:31.181Z,96.70
2022-11-24T22:55:38.232Z,98.10
2022-11-24T23:00:45.244Z,99.80
2022-11-24T23:05:52.783Z,106.80
2022-11-24T23:11:03.762Z,104.90
2022-11-24T23:16:13.105Z,101.50
2022-11-24T23:21:22.472Z,99.60
2022-11-24T23:26:31.746Z,105.80
2022-11-24T23:31:40.950Z,105.20
2022-11-24T23:36:48.369Z,108.90
2022-11-24T23:41:55.534Z,107.60
2022-11-24T23:47:02.370Z,103.10
2022-11-24T23:52:09.149Z,101.70
2022-11-24T23:57:16.097Z,98.90
